Mardela, Maryland
Current Conditions -  °F | °C
As of 6:44 PM on Monday 20 Oct 2014 (Local Time) from KCGE Reporting Station
Clear Clear  
Wind Chill: 59°   Ceiling: Unl
Heat Index: 59°   Visibility: 10mi
Dew Point: 43°   Wind: 5mph
Humidity: 55%   Direction: 160°SSE
Pressure: 29.98"   Gusts: NA
Location:  38.4616°N, 75.7616°W
Report Text: KCGE 202244Z AUTO 16004KT 10SM CLR 15/06 A2998 RMK AO1
Loading
Personal Weather Stations






























Interactive Weather Map
Tropical Storm Tracking
New forecast layout! Learn more

10-Day Weather Forecast

Advertisements
Track Severe Weather on mobile